Time;durP1;ratioP1;P1;durP2;ratioP2;P2;SDS_P1;SDS_P2;PMS_P1;PMS_P2;Temp;Humidity;BMP_temperature;BMP_pressure;BME280_temperature;BME280_humidity;BME280_pressure;Samples;Min_cycle;Max_cycle;Signal;HPM_P1;HPM_P2
2021/01/04 00:00:51;;;;;;;13.43;7.13;;;;;;;6.82;75.46;99267.19;4994378;28;20141;-72
2021/01/04 00:03:33;;;;;;;11.27;6.75;;;;;;;6.85;75.16;99277.34;4994279;28;20054;-71
2021/01/04 00:06:09;;;;;;;14.95;7.80;;;;;;;6.78;74.99;99270.53;4994336;28;20057;-72
2021/01/04 00:08:54;;;;;;;11.45;6.18;;;;;;;6.82;75.02;99277.31;4994481;28;20058;-73
2021/01/04 00:11:35;;;;;;;12.95;6.88;;;;;;;6.83;75.05;99273.97;4994224;28;20132;-72
2021/01/04 00:14:17;;;;;;;12.02;6.63;;;;;;;6.77;75.23;99279.00;4994228;28;20489;-71
2021/01/04 00:16:58;;;;;;;11.43;6.22;;;;;;;6.76;75.33;99278.16;4994159;28;20070;-71
2021/01/04 00:19:38;;;;;;;11.43;6.38;;;;;;;6.69;75.37;99266.25;4994187;28;20062;-72
2021/01/04 00:22:12;;;;;;;15.05;8.23;;;;;;;6.62;75.50;99277.19;4994104;28;20417;-72
2021/01/04 00:24:48;;;;;;;13.70;7.22;;;;;;;6.52;75.61;99273.72;4994404;28;20121;-71
2021/01/04 00:27:27;;;;;;;15.82;8.35;;;;;;;6.40;75.71;99273.63;4994195;28;20046;-72
2021/01/04 00:29:59;;;;;;;15.82;8.25;;;;;;;6.36;76.31;99276.94;4994192;28;20110;-71
2021/01/04 00:32:34;;;;;;;17.27;9.07;;;;;;;6.31;76.77;99281.09;4994051;28;20053;-71
2021/01/04 00:35:09;;;;;;;18.27;9.05;;;;;;;6.30;76.71;99287.03;4994012;28;20050;-73
2021/01/04 00:38:01;;;;;;;18.02;8.85;;;;;;;6.16;77.17;99278.44;4995301;28;20056;-72
2021/01/04 00:40:41;;;;;;;14.23;7.95;;;;;;;6.19;77.49;99283.53;4997990;28;20051;-71
2021/01/04 00:43:17;;;;;;;17.20;8.38;;;;;;;6.19;77.38;99278.44;4996806;28;20092;-73
2021/01/04 00:45:47;;;;;;;18.35;9.70;;;;;;;6.25;77.52;99292.88;4997851;28;20053;-72
2021/01/04 00:48:21;;;;;;;17.75;9.23;;;;;;;6.21;77.49;99286.94;4996755;28;20073;-72
2021/01/04 00:51:02;;;;;;;17.95;9.18;;;;;;;6.18;77.92;99276.78;4998030;28;20069;-73
2021/01/04 00:53:33;;;;;;;19.02;9.95;;;;;;;6.16;78.14;99283.50;4997780;28;20070;-71
2021/01/04 00:56:12;;;;;;;14.48;8.35;;;;;;;6.12;77.85;99281.75;4997583;28;20080;-71
2021/01/04 00:59:01;;;;;;;16.80;8.63;;;;;;;6.11;77.82;99275.00;4997967;28;20050;-73
2021/01/04 01:01:38;;;;;;;15.20;7.75;;;;;;;6.02;78.06;99249.59;4997676;28;20125;-72
2021/01/04 01:04:20;;;;;;;15.80;7.95;;;;;;;5.85;77.80;99220.72;4997563;28;20105;-73
2021/01/04 01:07:05;;;;;;;15.85;8.02;;;;;;;6.09;78.03;99271.63;4997862;28;20386;-72
2021/01/04 01:09:36;;;;;;;16.48;8.65;;;;;;;6.06;78.38;99271.56;4937397;29;20059;-73
2021/01/04 01:12:20;;;;;;;15.02;8.70;;;;;;;6.12;78.34;99271.63;4937711;29;20055;-72
2021/01/04 01:15:01;;;;;;;15.02;7.70;;;;;;;6.09;78.37;99271.63;4937427;29;20454;-72
2021/01/04 01:18:01;;;;;;;15.77;8.25;;;;;;;6.14;78.38;99279.25;4937421;29;20568;-71
2021/01/04 01:20:29;;;;;;;15.85;8.00;;;;;;;6.08;78.43;99280.03;4937314;29;20056;-72
2021/01/04 01:22:58;;;;;;;14.32;8.02;;;;;;;6.08;78.59;99280.03;4937228;29;20138;-71
2021/01/04 01:25:29;;;;;;;13.90;7.47;;;;;;;5.98;78.54;99263.03;4937436;29;20087;-71
2021/01/04 01:28:31;;;;;;;13.70;7.30;;;;;;;6.09;78.50;99276.69;4937211;29;20058;-72
2021/01/04 01:31:17;;;;;;;15.23;7.88;;;;;;;6.02;78.73;99274.91;4936451;29;20059;-72
2021/01/04 01:34:11;;;;;;;13.20;7.47;;;;;;;5.89;78.65;99273.06;4936992;29;20051;-71
2021/01/04 01:36:50;;;;;;;14.43;7.20;;;;;;;5.96;78.91;99282.44;4937299;29;20052;-71
2021/01/04 01:39:28;;;;;;;11.07;6.10;;;;;;;5.98;79.03;99284.16;4936881;29;20127;-72
2021/01/04 01:42:22;;;;;;;15.45;7.47;;;;;;;6.02;79.13;99269.84;4936824;29;20302;-73
2021/01/04 01:44:56;;;;;;;12.98;7.28;;;;;;;6.04;78.94;99275.78;4915555;29;20083;-70
2021/01/04 01:47:31;;;;;;;15.02;7.28;;;;;;;6.05;78.95;99280.00;4984908;28;20050;-71
2021/01/04 01:50:05;;;;;;;14.38;7.32;;;;;;;6.05;78.92;99264.81;4996315;28;20496;-72
2021/01/04 01:52:42;;;;;;;13.45;7.45;;;;;;;6.04;78.89;99268.19;4996738;28;20054;-72
2021/01/04 01:55:24;;;;;;;14.68;7.78;;;;;;;5.83;79.01;99247.66;4996557;28;20133;-71
2021/01/04 01:58:24;;;;;;;14.48;7.47;;;;;;;5.90;78.85;99269.72;4996613;28;20058;-72
2021/01/04 02:01:02;;;;;;;13.90;8.02;;;;;;;5.73;79.31;99245.84;4995096;28;20054;-71
2021/01/04 02:03:39;;;;;;;14.00;8.02;;;;;;;5.81;79.32;99267.03;4995559;28;20054;-71
2021/01/04 02:06:24;;;;;;;15.00;8.40;;;;;;;5.76;79.44;99266.16;4996412;28;20070;-71
2021/01/04 02:08:58;;;;;;;17.55;8.57;;;;;;;5.75;79.65;99269.50;4979144;28;20566;-71
2021/01/04 02:11:35;;;;;;;15.65;8.65;;;;;;;5.74;80.04;99260.19;4995122;28;20050;-71
2021/01/04 02:14:05;;;;;;;17.38;8.57;;;;;;;5.78;80.34;99244.22;4996300;28;20118;-73
2021/01/04 02:16:38;;;;;;;18.25;8.60;;;;;;;5.88;80.50;99240.97;4996091;28;20488;-71
2021/01/04 02:19:15;;;;;;;20.40;8.57;;;;;;;5.93;80.89;99254.53;4996480;28;20058;-72
2021/01/04 02:22:09;;;;;;;15.30;8.07;;;;;;;5.92;80.86;99252.84;4996067;28;20416;-71
2021/01/04 02:24:37;;;;;;;15.00;8.10;;;;;;;5.90;80.91;99252.00;4996177;28;20047;-71
2021/01/04 02:27:10;;;;;;;13.85;7.88;;;;;;;5.87;80.91;99251.97;4996241;28;20047;-71
2021/01/04 02:29:38;;;;;;;16.30;7.57;;;;;;;5.82;81.31;99240.88;4995999;28;20061;-71
2021/01/04 02:32:07;;;;;;;17.17;8.65;;;;;;;5.79;81.34;99246.75;4995924;28;20049;-71
2021/01/04 02:34:40;;;;;;;16.65;8.23;;;;;;;5.76;81.10;99245.91;4995825;28;20050;-71
2021/01/04 02:37:09;;;;;;;14.77;8.15;;;;;;;5.69;81.41;99244.09;4996090;28;20073;-71
2021/01/04 02:39:43;;;;;;;12.85;6.65;;;;;;;5.61;81.59;99248.25;4995740;28;20042;-71
2021/01/04 02:42:14;;;;;;;18.42;8.52;;;;;;;5.63;81.73;99254.16;4995421;28;20412;-72
2021/01/04 02:44:43;;;;;;;17.33;8.30;;;;;;;5.61;81.79;99250.78;4996001;28;20132;-71
2021/01/04 02:47:37;;;;;;;15.77;8.32;;;;;;;5.55;81.82;99245.63;4995599;28;20093;-71
2021/01/04 02:50:17;;;;;;;15.65;7.88;;;;;;;5.50;82.20;99247.25;4995442;28;20101;-71
2021/01/04 02:52:48;;;;;;;;;;;;;;;5.46;82.44;99243.00;4995938;28;20050;-71
2021/01/04 02:55:25;;;;;;;19.23;7.70;;;;;;;5.47;82.53;99242.16;4995756;28;19994;-71
2021/01/04 02:57:59;;;;;;;17.33;9.02;;;;;;;5.38;82.23;99243.75;4995503;28;20519;-71
2021/01/04 03:00:29;;;;;;;16.40;8.35;;;;;;;5.27;82.76;99247.81;4994625;28;20065;-71
2021/01/04 03:02:59;;;;;;;18.20;9.35;;;;;;;5.21;83.20;99247.72;4995023;28;20062;-71
2021/01/04 03:05:27;;;;;;;16.88;8.57;;;;;;;5.21;83.29;99246.88;4995225;28;20050;-71
2021/01/04 03:07:57;;;;;;;17.92;9.35;;;;;;;5.21;82.92;99239.28;4995242;28;20054;-71
2021/01/04 03:10:29;;;;;;;17.83;9.18;;;;;;;5.28;83.46;99246.13;4995163;28;20053;-71
2021/01/04 03:13:08;;;;;;;17.63;9.05;;;;;;;5.28;83.15;99246.13;4995108;28;20075;-71
2021/01/04 03:15:52;;;;;;;18.13;10.80;;;;;;;5.24;83.71;99234.28;4995070;28;20539;-71
2021/01/04 03:18:27;;;;;;;20.52;11.25;;;;;;;5.27;83.42;99250.34;4995397;28;20074;-71
2021/01/04 03:20:55;;;;;;;16.27;9.60;;;;;;;5.25;83.88;99246.97;4995036;28;20077;-71
2021/01/04 03:23:22;;;;;;;21.23;9.65;;;;;;;5.22;83.88;99241.84;4994947;28;20045;-70
2021/01/04 03:25:55;;;;;;;17.95;9.45;;;;;;;5.22;84.02;99241.84;4994786;28;20053;-71
2021/01/04 03:28:25;;;;;;;18.08;9.68;;;;;;;5.20;83.88;99235.06;4994867;28;20050;-70
2021/01/04 03:30:53;;;;;;;21.52;9.85;;;;;;;5.18;84.19;99229.16;4994841;28;20140;-70
2021/01/04 03:33:21;;;;;;;18.65;8.93;;;;;;;5.11;84.21;99228.19;4994703;28;20043;-71
2021/01/04 03:35:50;;;;;;;17.65;9.57;;;;;;;4.98;84.06;99226.34;4994543;28;20042;-70
2021/01/04 03:38:19;;;;;;;18.80;9.80;;;;;;;4.97;84.66;99234.75;4994702;28;20058;-71
2021/01/04 03:40:47;;;;;;;19.05;10.02;;;;;;;4.92;84.72;99226.25;4994371;28;20085;-71
2021/01/04 03:43:16;;;;;;;23.27;11.55;;;;;;;4.92;84.57;99231.28;4994709;28;20050;-71
2021/01/04 03:45:44;;;;;;;22.10;10.82;;;;;;;4.84;84.98;99232.88;4994460;28;20057;-71
2021/01/04 03:48:12;;;;;;;19.75;10.48;;;;;;;4.82;84.73;99237.06;4994520;28;20046;-71
2021/01/04 03:50:40;;;;;;;20.40;10.68;;;;;;;4.73;84.81;99234.38;4994216;28;20042;-71
2021/01/04 03:53:08;;;;;;;22.48;11.75;;;;;;;4.70;85.08;99235.19;4994440;28;20059;-70
2021/01/04 03:55:38;;;;;;;25.58;12.10;;;;;;;4.64;85.48;99230.06;4994341;28;20042;-71
2021/01/04 03:58:06;;;;;;;27.92;12.15;;;;;;;4.44;85.29;99210.38;4994277;28;20507;-70
2021/01/04 04:00:35;;;;;;;24.75;10.32;;;;;;;4.48;85.55;99242.44;4994389;28;20054;-70
2021/01/04 04:03:04;;;;;;;14.95;7.85;;;;;;;4.45;85.20;99233.13;4994485;28;20057;-71
2021/01/04 04:05:32;;;;;;;20.60;10.95;;;;;;;4.45;85.14;99232.25;4994298;28;20467;-71
2021/01/04 04:08:02;;;;;;;21.80;10.93;;;;;;;4.46;85.64;99228.91;4994134;28;20042;-71
2021/01/04 04:10:31;;;;;;;22.05;10.52;;;;;;;4.52;85.14;99239.09;4994304;28;20523;-71
2021/01/04 04:12:59;;;;;;;26.52;12.88;;;;;;;4.52;85.16;99239.97;4993847;28;20042;-71
2021/01/04 04:15:27;;;;;;;34.72;15.55;;;;;;;4.60;85.29;99240.09;4994416;28;20050;-71
2021/01/04 04:17:56;;;;;;;29.10;13.10;;;;;;;4.60;85.26;99237.56;4994138;28;20089;-71
2021/01/04 04:20:25;;;;;;;40.45;16.80;;;;;;;4.49;85.38;99239.91;4994141;28;20046;-71
2021/01/04 04:22:55;;;;;;;34.05;15.93;;;;;;;4.47;85.94;99235.66;4994112;28;20054;-71
2021/01/04 04:25:25;;;;;;;50.95;21.27;;;;;;;4.44;85.69;99236.47;4992964;28;20050;-71
2021/01/04 04:27:53;;;;;;;53.23;21.67;;;;;;;4.49;85.51;99239.06;4994082;28;20043;-71
2021/01/04 04:30:23;;;;;;;51.47;21.48;;;;;;;4.52;85.54;99229.00;4994005;28;20288;-71
2021/01/04 04:32:52;;;;;;;43.78;19.15;;;;;;;3.38;85.31;99031.94;4994400;28;20105;-71
2021/01/04 04:35:21;;;;;;;32.17;14.95;;;;;;;4.37;85.88;99195.91;4994070;28;20047;-71
2021/01/04 04:37:49;;;;;;;26.95;13.32;;;;;;;4.48;85.73;99232.31;4993776;28;20051;-71
2021/01/04 04:40:19;;;;;;;20.42;10.80;;;;;;;4.29;85.32;99205.06;4994156;28;20042;-71
2021/01/04 04:42:48;;;;;;;19.60;9.93;;;;;;;4.27;85.18;99216.81;4992565;28;20058;-71
2021/01/04 04:45:19;;;;;;;21.58;10.07;;;;;;;4.20;85.86;99207.44;4993887;28;20051;-71
2021/01/04 04:47:57;;;;;;;17.25;9.77;;;;;;;4.48;85.70;99237.38;4993981;28;20042;-71
2021/01/04 04:50:37;;;;;;;19.88;9.95;;;;;;;4.46;85.98;99236.50;4993783;28;20046;-71
2021/01/04 04:53:28;;;;;;;20.33;10.17;;;;;;;4.51;85.62;99243.31;4993957;28;20511;-71
2021/01/04 04:56:08;;;;;;;21.20;9.88;;;;;;;4.58;85.67;99239.22;4993745;28;20053;-71
2021/01/04 04:58:44;;;;;;;23.08;11.35;;;;;;;4.67;85.83;99234.31;4992664;28;20077;-71
2021/01/04 05:01:21;;;;;;;21.95;10.82;;;;;;;4.68;85.83;99236.00;4992886;28;20051;-71
2021/01/04 05:04:02;;;;;;;29.17;12.82;;;;;;;4.70;86.03;99234.38;4993738;28;20046;-71
2021/01/04 05:06:41;;;;;;;31.48;13.45;;;;;;;4.70;85.98;99234.38;4993994;28;20061;-71
2021/01/04 05:09:24;;;;;;;29.83;12.85;;;;;;;4.71;85.74;99246.16;4993648;28;20046;-71
2021/01/04 05:12:04;;;;;;;28.30;12.23;;;;;;;4.51;85.39;99207.13;4993735;28;20054;-70
2021/01/04 05:14:36;;;;;;;20.65;10.65;;;;;;;4.74;86.13;99236.09;4992662;28;20049;-71
2021/01/04 05:17:20;;;;;;;21.58;10.50;;;;;;;4.75;86.02;99243.69;4993625;28;20050;-71
2021/01/04 05:20:09;;;;;;;23.75;10.45;;;;;;;4.81;85.73;99242.09;4993579;28;20057;-71
2021/01/04 05:22:42;;;;;;;22.52;10.27;;;;;;;4.86;85.48;99253.97;4993461;28;20039;-71
2021/01/04 05:25:26;;;;;;;22.77;11.25;;;;;;;4.76;85.98;99229.38;4995522;28;20051;-71
2021/01/04 05:28:15;;;;;;;20.70;10.63;;;;;;;4.93;85.45;99262.50;4997084;28;20046;-70
2021/01/04 05:31:11;;;;;;;23.05;10.98;;;;;;;4.98;85.44;99266.81;4997080;28;20057;-71
2021/01/04 05:33:50;;;;;;;21.90;10.25;;;;;;;4.99;85.76;99258.38;4997320;28;20077;-72
2021/01/04 05:36:32;;;;;;;22.08;10.15;;;;;;;5.03;85.86;99270.25;4996903;28;20140;-71
2021/01/04 05:39:07;;;;;;;19.02;10.32;;;;;;;5.10;85.99;99261.91;4996966;28;20061;-71
2021/01/04 05:41:49;;;;;;;18.05;9.65;;;;;;;5.09;85.56;99262.72;4996725;28;20050;-71
2021/01/04 05:44:34;;;;;;;19.60;9.73;;;;;;;5.12;85.55;99270.38;4996728;28;20050;-71
2021/01/04 05:47:11;;;;;;;17.80;9.52;;;;;;;5.13;85.52;99267.03;4996863;28;20105;-71
2021/01/04 05:49:45;;;;;;;17.80;8.90;;;;;;;5.14;85.67;99268.72;4996835;28;20497;-71
2021/01/04 05:52:16;;;;;;;15.90;8.80;;;;;;;5.08;85.84;99268.63;4996712;28;20527;-71
2021/01/04 05:54:45;;;;;;;17.70;9.93;;;;;;;5.05;85.45;99278.69;4996641;28;20055;-71
2021/01/04 05:57:19;;;;;;;18.52;9.95;;;;;;;5.08;85.70;99277.91;4996484;28;20042;-71
2021/01/04 05:59:49;;;;;;;20.58;9.52;;;;;;;5.10;85.70;99282.16;4996636;28;20560;-71
2021/01/04 06:02:42;;;;;;;18.67;9.82;;;;;;;5.14;86.02;99283.88;4996433;28;20046;-71
2021/01/04 06:05:13;;;;;;;19.92;9.95;;;;;;;5.17;85.91;99278.03;4996418;28;20123;-71
2021/01/04 06:07:44;;;;;;;19.23;9.48;;;;;;;5.13;85.92;99277.16;4996497;28;20463;-71
2021/01/04 06:10:20;;;;;;;18.05;9.43;;;;;;;5.15;86.15;99280.53;4996296;28;20061;-71
2021/01/04 06:13:07;;;;;;;18.85;9.30;;;;;;;5.16;85.99;99271.28;4996327;28;20062;-71
2021/01/04 06:15:37;;;;;;;18.17;9.07;;;;;;;5.14;86.07;99270.38;4996175;28;20085;-72
2021/01/04 06:18:08;;;;;;;21.85;10.25;;;;;;;5.19;85.94;99272.16;4996389;28;20078;-71
2021/01/04 06:21:09;;;;;;;22.38;10.05;;;;;;;5.16;85.87;99267.06;4996080;28;20061;-71
2021/01/04 06:23:37;;;;;;;18.75;9.45;;;;;;;5.18;86.26;99272.97;4996084;28;20047;-71
2021/01/04 06:26:14;;;;;;;20.25;10.38;;;;;;;5.02;86.09;99248.31;4996032;28;20097;-71
2021/01/04 06:28:47;;;;;;;18.10;9.20;;;;;;;5.19;86.30;99279.75;4996101;28;20049;-72
2021/01/04 06:31:25;;;;;;;16.17;9.20;;;;;;;5.21;85.73;99284.81;4995996;28;20120;-71
2021/01/04 06:33:58;;;;;;;18.92;9.52;;;;;;;5.15;86.33;99275.47;4996256;28;20060;-71
2021/01/04 06:36:26;;;;;;;19.48;9.23;;;;;;;5.19;85.94;99282.28;4995630;28;20137;-71
2021/01/04 06:38:54;;;;;;;16.58;8.88;;;;;;;5.18;86.33;99285.63;4995787;28;20034;-71
2021/01/04 06:41:30;;;;;;;17.55;9.40;;;;;;;5.06;86.08;99262.69;4995473;28;20416;-71
2021/01/04 06:44:10;;;;;;;17.98;9.50;;;;;;;5.26;86.25;99284.06;4995750;28;20061;-71
2021/01/04 06:47:01;;;;;;;17.70;9.18;;;;;;;5.29;86.43;99279.06;4995652;28;20496;-71
2021/01/04 06:49:35;;;;;;;19.75;9.30;;;;;;;5.30;86.35;99288.31;4995691;28;20054;-71
2021/01/04 06:52:14;;;;;;;16.00;9.32;;;;;;;5.32;86.17;99284.16;4995521;28;20049;-71
2021/01/04 06:55:02;;;;;;;18.83;9.30;;;;;;;5.33;86.30;99292.56;4996054;28;20108;-71
2021/01/04 06:57:48;;;;;;;35.15;14.05;;;;;;;5.36;86.35;99285.03;4995412;28;20050;-71
2021/01/04 07:00:26;;;;;;;39.55;16.23;;;;;;;5.37;86.21;99292.63;4995431;28;20065;-71
2021/01/04 07:02:59;;;;;;;36.55;16.75;;;;;;;5.39;86.28;99285.94;4995284;28;20056;-71
2021/01/04 07:05:47;;;;;;;34.65;15.00;;;;;;;5.44;86.30;99288.53;4995390;28;20059;-71
2021/01/04 07:08:25;;;;;;;32.20;15.00;;;;;;;5.48;86.39;99297.00;4995175;28;20520;-72
2021/01/04 07:11:06;;;;;;;26.10;13.55;;;;;;;5.53;86.74;99292.84;4995212;28;20497;-71
2021/01/04 07:13:46;;;;;;;25.15;12.95;;;;;;;5.58;86.41;99298.81;4995134;28;20054;-71
2021/01/04 07:16:33;;;;;;;22.45;11.45;;;;;;;5.64;85.72;99286.25;4993970;28;20051;-71
2021/01/04 07:19:12;;;;;;;21.42;10.68;;;;;;;5.64;86.29;99297.22;4995026;28;20101;-71
2021/01/04 07:21:47;;;;;;;18.13;8.45;;;;;;;5.69;86.37;99294.72;4995117;28;20050;-71
2021/01/04 07:24:31;;;;;;;20.70;10.20;;;;;;;5.74;86.28;99298.16;4995045;28;20177;-71
2021/01/04 07:27:12;;;;;;;20.90;10.50;;;;;;;5.76;85.93;99296.53;4994881;28;20141;-71
2021/01/04 07:29:57;;;;;;;18.90;10.40;;;;;;;5.81;86.24;99300.81;4994902;28;20412;-71
2021/01/04 07:32:45;;;;;;;21.70;11.15;;;;;;;5.87;86.19;99300.06;4994876;28;20057;-71
2021/01/04 07:35:20;;;;;;;20.45;10.00;;;;;;;5.94;86.11;99301.84;4993567;28;20100;-71
2021/01/04 07:37:56;;;;;;;19.65;10.10;;;;;;;5.97;86.18;99299.34;4994701;28;20511;-71
2021/01/04 07:40:45;;;;;;;19.70;10.93;;;;;;;6.01;85.98;99312.06;4994681;28;20057;-71
2021/01/04 07:43:40;;;;;;;19.45;10.30;;;;;;;6.06;86.18;99304.50;4975790;28;20050;-71
2021/01/04 07:46:35;;;;;;;19.77;10.27;;;;;;;6.03;86.25;99305.31;4994549;28;20493;-71
2021/01/04 07:49:30;;;;;;;19.20;10.20;;;;;;;6.13;85.84;99311.34;4994422;28;20067;-71
2021/01/04 07:52:20;;;;;;;20.00;10.23;;;;;;;6.20;86.33;99315.63;4994430;28;20047;-71
2021/01/04 07:55:19;;;;;;;19.25;9.43;;;;;;;6.24;85.46;99311.47;4993437;28;20099;-71
2021/01/04 07:58:03;;;;;;;19.52;9.93;;;;;;;6.33;85.80;99314.94;4994183;28;20051;-71
2021/01/04 08:00:44;;;;;;;17.20;9.23;;;;;;;6.39;85.40;99311.59;4994473;28;20042;-71
2021/01/04 08:03:30;;;;;;;18.23;9.10;;;;;;;6.44;85.64;99333.63;4994631;28;20062;-71
2021/01/04 08:06:09;;;;;;;19.52;9.98;;;;;;;6.51;84.89;99311.72;4986826;28;20451;-71
2021/01/04 08:08:43;;;;;;;13.50;7.30;;;;;;;6.53;84.81;99307.50;4993339;28;20120;-71
2021/01/04 08:11:30;;;;;;;16.60;8.80;;;;;;;6.54;84.92;99307.53;4994190;28;20097;-71
2021/01/04 08:14:31;;;;;;;15.88;8.93;;;;;;;6.25;84.05;99253.19;4994580;28;20046;-71
2021/01/04 08:17:04;;;;;;;19.65;9.77;;;;;;;6.59;84.81;99310.97;4994483;28;20042;-71
2021/01/04 08:19:36;;;;;;;16.95;9.18;;;;;;;6.61;84.78;99314.38;4994248;28;20108;-71
2021/01/04 08:22:26;;;;;;;15.63;8.05;;;;;;;6.63;84.62;99312.69;4992594;28;20073;-71
2021/01/04 08:25:05;;;;;;;16.25;8.90;;;;;;;6.63;83.98;99316.91;4992625;28;20396;-71
2021/01/04 08:27:50;;;;;;;15.73;8.35;;;;;;;6.66;84.04;99317.78;4994146;28;20054;-71
2021/01/04 08:30:26;;;;;;;17.98;9.50;;;;;;;6.56;84.16;99288.13;4994149;28;20054;-72
2021/01/04 08:33:01;;;;;;;15.95;8.15;;;;;;;6.78;83.34;99311.13;4994069;28;20050;-71
2021/01/04 08:35:34;;;;;;;16.35;8.35;;;;;;;6.82;83.70;99317.91;4994107;28;20054;-71
2021/01/04 08:38:20;;;;;;;16.50;8.85;;;;;;;6.85;82.97;99312.88;4992968;28;20077;-71
2021/01/04 08:40:54;;;;;;;17.15;8.57;;;;;;;6.88;82.74;99328.97;4991561;28;20050;-72
2021/01/04 08:43:32;;;;;;;19.42;9.15;;;;;;;6.90;82.27;99326.44;4993369;28;20046;-71
2021/01/04 08:46:13;;;;;;;16.02;8.27;;;;;;;6.72;81.83;99295.00;4974324;28;20055;-71
2021/01/04 08:48:41;;;;;;;16.10;8.30;;;;;;;6.93;81.95;99332.41;4992310;28;20050;-71
2021/01/04 08:51:12;;;;;;;18.83;9.15;;;;;;;6.94;82.25;99333.22;4993831;28;20076;-71
2021/01/04 08:53:52;;;;;;;16.20;8.80;;;;;;;6.90;82.26;99336.56;4993810;28;20070;-71
2021/01/04 08:56:28;;;;;;;15.25;7.63;;;;;;;6.89;81.58;99334.88;4993839;28;20057;-71
2021/01/04 08:59:08;;;;;;;15.93;8.10;;;;;;;6.88;81.79;99343.34;4993888;28;20139;-71
2021/01/04 09:01:51;;;;;;;17.65;8.98;;;;;;;6.88;81.23;99339.13;4997627;28;20121;-71
2021/01/04 09:04:28;;;;;;;15.68;8.25;;;;;;;6.90;81.54;99346.72;4996296;28;20042;-71
2021/01/04 09:07:05;;;;;;;15.48;8.23;;;;;;;6.92;81.21;99350.13;4997776;28;20104;-72
2021/01/04 09:09:40;;;;;;;17.85;9.05;;;;;;;6.94;81.31;99338.28;4997513;28;20053;-71
2021/01/04 09:12:20;;;;;;;17.13;8.75;;;;;;;6.94;81.60;99340.81;4997388;28;20101;-71
2021/01/04 09:14:54;;;;;;;19.25;8.25;;;;;;;6.92;81.69;99337.44;4997261;28;20120;-71
2021/01/04 09:17:29;;;;;;;16.35;9.07;;;;;;;6.91;81.64;99338.28;4997503;28;20049;-71
2021/01/04 09:20:02;;;;;;;16.80;9.85;;;;;;;6.91;81.09;99333.22;4997355;28;20057;-71
2021/01/04 09:22:32;;;;;;;18.48;10.10;;;;;;;6.87;81.09;99339.94;4997285;28;20069;-72
2021/01/04 09:25:02;;;;;;;21.73;10.40;;;;;;;6.86;80.96;99330.66;4997162;28;20061;-71
2021/01/04 09:27:50;;;;;;;19.50;10.43;;;;;;;6.91;81.55;99335.75;4997052;28;20077;-72
2021/01/04 09:30:25;;;;;;;19.02;10.35;;;;;;;6.94;81.16;99341.69;4997088;28;20046;-71
2021/01/04 09:33:24;;;;;;;19.77;10.18;;;;;;;6.95;81.15;99340.88;4996688;28;20054;-71
2021/01/04 09:36:02;;;;;;;18.48;10.27;;;;;;;6.97;81.61;99338.31;4996934;28;20519;-71
2021/01/04 09:38:49;;;;;;;19.70;10.20;;;;;;;6.97;81.17;99335.78;4996704;28;20519;-72
2021/01/04 09:41:19;;;;;;;19.65;10.88;;;;;;;6.92;81.16;99339.97;4996458;28;20070;-71
2021/01/04 09:44:07;;;;;;;35.05;24.77;;;;;;;6.91;81.27;99338.28;4996731;28;20487;-71
2021/01/04 09:46:44;;;;;;;19.73;10.00;;;;;;;6.92;81.58;99329.81;4998979;28;20058;-71
2021/01/04 09:49:17;;;;;;;20.40;11.00;;;;;;;6.92;81.96;99325.59;4996771;28;20058;-71
2021/01/04 09:51:51;;;;;;;16.13;9.38;;;;;;;6.94;81.71;99313.78;4996775;28;20058;-71
2021/01/04 09:54:24;;;;;;;16.88;10.20;;;;;;;6.98;82.39;99312.97;4996638;28;20058;-71
2021/01/04 09:57:00;;;;;;;20.20;11.05;;;;;;;7.00;81.69;99318.91;4995596;28;20419;-72
2021/01/04 09:59:29;;;;;;;22.92;10.77;;;;;;;7.02;82.53;99311.31;4994332;28;20046;-71
2021/01/04 10:02:01;;;;;;;20.90;10.52;;;;;;;7.04;82.35;99314.69;4996506;28;20153;-72
2021/01/04 10:04:32;;;;;;;19.40;9.77;;;;;;;7.06;82.46;99306.25;4996767;28;20076;-71
2021/01/04 10:07:05;;;;;;;20.98;9.95;;;;;;;7.08;82.27;99313.91;4997130;28;20046;-71
2021/01/04 10:09:37;;;;;;;19.63;9.77;;;;;;;7.09;82.84;99307.97;4996175;28;20414;-71
2021/01/04 10:12:10;;;;;;;20.30;10.30;;;;;;;7.05;82.67;99301.19;4996189;28;20100;-72
2021/01/04 10:14:44;;;;;;;18.25;9.98;;;;;;;7.11;82.21;99306.28;4996258;28;20058;-71
2021/01/04 10:17:14;;;;;;;17.58;10.10;;;;;;;7.14;82.45;99307.19;4995945;28;20046;-72
2021/01/04 10:19:50;;;;;;;23.08;12.07;;;;;;;7.14;81.92;99296.16;4996073;28;20073;-71
2021/01/04 10:22:25;;;;;;;16.73;9.57;;;;;;;7.19;82.03;99304.66;4996184;28;20057;-71
2021/01/04 10:24:58;;;;;;;20.90;10.95;;;;;;;7.21;81.71;99302.97;4996447;28;20485;-71
2021/01/04 10:27:29;;;;;;;18.63;9.90;;;;;;;7.23;81.75;99296.22;4996460;28;20070;-71
2021/01/04 10:30:24;;;;;;;20.33;10.77;;;;;;;7.20;82.00;99291.97;4994303;28;20061;-71
2021/01/04 10:33:30;;;;;;;20.83;10.98;;;;;;;7.26;81.46;99298.78;4995845;28;20054;-71
2021/01/04 10:36:06;;;;;;;19.38;10.60;;;;;;;7.24;81.82;99296.25;4995858;28;20128;-71
2021/01/04 10:38:39;;;;;;;22.63;10.40;;;;;;;6.09;82.12;99094.31;4994997;28;20058;-71
2021/01/04 10:41:10;;;;;;;20.55;10.63;;;;;;;7.17;81.65;99288.59;4995622;28;20046;-71
2021/01/04 10:43:40;;;;;;;21.08;10.85;;;;;;;7.02;82.70;99286.78;4995601;28;20081;-71
2021/01/04 10:46:22;;;;;;;18.42;10.45;;;;;;;7.02;82.83;99285.94;4995678;28;20050;-71
2021/01/04 10:48:57;;;;;;;19.42;10.30;;;;;;;7.09;82.65;99275.84;4995655;28;20073;-71
2021/01/04 10:51:32;;;;;;;18.45;10.23;;;;;;;7.17;83.45;99278.44;4995496;28;20511;-71
2021/01/04 10:54:13;;;;;;;19.65;10.40;;;;;;;7.20;83.40;99281.81;4995554;28;20054;-71
2021/01/04 10:57:16;;;;;;;20.38;10.77;;;;;;;7.24;83.41;99272.56;5009085;28;20166;-71
2021/01/04 10:59:58;;;;;;;22.67;11.30;;;;;;;7.24;83.17;99281.03;4956757;28;20174;-71
2021/01/04 11:02:26;;;;;;;19.48;10.30;;;;;;;7.27;83.05;99278.47;4973337;28;20074;-71
2021/01/04 11:04:55;;;;;;;20.50;11.23;;;;;;;6.35;82.58;99158.69;4973599;28;20050;-71
2021/01/04 11:07:31;;;;;;;21.17;11.27;;;;;;;7.19;83.06;99274.22;4957558;28;20070;-71
2021/01/04 11:10:24;;;;;;;21.13;10.73;;;;;;;7.17;83.09;99270.81;4973591;28;20049;-71
2021/01/04 11:12:56;;;;;;;19.48;10.85;;;;;;;7.20;83.04;99280.97;4973657;28;20047;-71
2021/01/04 11:15:28;;;;;;;21.70;11.00;;;;;;;7.18;83.22;99272.50;4973850;28;20043;-71
2021/01/04 11:18:00;;;;;;;21.05;10.65;;;;;;;6.10;83.16;99085.84;4973471;28;20183;-71
2021/01/04 11:20:29;;;;;;;20.00;10.43;;;;;;;7.28;82.96;99269.19;4957515;28;20058;-71
2021/01/04 11:23:01;;;;;;;21.48;11.48;;;;;;;7.30;83.43;99262.44;4972651;28;20046;-71
2021/01/04 11:25:30;;;;;;;22.48;11.07;;;;;;;7.30;83.04;99264.97;4973599;28;20102;-71
2021/01/04 11:27:59;;;;;;;22.80;11.32;;;;;;;7.32;83.34;99255.66;4957424;28;20098;-71
2021/01/04 11:30:34;;;;;;;20.38;10.98;;;;;;;7.33;83.75;99253.16;4973314;28;20452;-71
2021/01/04 11:33:05;;;;;;;24.08;12.13;;;;;;;7.37;82.95;99248.91;4973270;28;20051;-71
2021/01/04 11:35:33;;;;;;;25.80;13.13;;;;;;;7.41;83.44;99243.03;4973315;28;20050;-72
2021/01/04 11:38:02;;;;;;;26.27;12.32;;;;;;;7.41;82.71;99235.44;4975079;28;20401;-71
2021/01/04 11:40:30;;;;;;;20.75;11.48;;;;;;;7.42;82.49;99232.88;4975283;28;20485;-71
2021/01/04 11:42:58;;;;;;;22.15;12.48;;;;;;;7.42;82.17;99232.03;4975105;28;20101;-72
2021/01/04 11:45:26;;;;;;;20.90;11.98;;;;;;;7.39;82.19;99242.16;4975136;28;20532;-71
2021/01/04 11:47:56;;;;;;;22.15;11.85;;;;;;;7.39;83.14;99239.63;4975094;28;20043;-71
2021/01/04 11:50:24;;;;;;;22.73;12.38;;;;;;;7.41;82.53;99241.31;4992079;28;20054;-71
2021/01/04 11:52:56;;;;;;;25.60;12.52;;;;;;;7.42;82.04;99237.97;4994387;28;20078;-71
2021/01/04 11:55:25;;;;;;;22.95;11.38;;;;;;;7.41;82.65;99220.19;4994431;28;20070;-71
2021/01/04 11:57:54;;;;;;;21.40;12.00;;;;;;;7.47;82.07;99225.28;4994322;28;20051;-71
2021/01/04 12:00:23;;;;;;;21.25;12.27;;;;;;;7.50;82.51;99227.84;4994617;28;20062;-71
2021/01/04 12:02:58;;;;;;;23.42;13.18;;;;;;;7.54;82.56;99227.00;4994503;28;20053;-72
2021/01/04 12:05:28;;;;;;;20.58;11.88;;;;;;;7.56;82.47;99217.69;4993184;28;20050;-72
2021/01/04 12:07:57;;;;;;;21.83;11.50;;;;;;;7.58;81.84;99213.50;4994147;28;20050;-71
2021/01/04 12:10:26;;;;;;;21.05;12.10;;;;;;;7.57;82.67;99210.94;4994035;28;20057;-71
2021/01/04 12:12:56;;;;;;;20.20;11.27;;;;;;;7.57;82.08;99206.72;4992971;28;20049;-71